createdAt,value
2022-11-06T00:00:43.499Z,8.67
2022-11-06T00:01:43.513Z,8.63
2022-11-06T00:02:43.513Z,8.57
2022-11-06T00:03:43.513Z,8.53
2022-11-06T00:04:43.499Z,8.52
2022-11-06T00:05:43.514Z,8.51
2022-11-06T00:06:43.514Z,8.49
2022-11-06T00:07:43.514Z,8.46
2022-11-06T00:08:43.500Z,8.43
2022-11-06T00:09:43.515Z,8.38
2022-11-06T00:10:43.515Z,8.35
2022-11-06T00:11:43.515Z,8.35
2022-11-06T00:12:43.500Z,8.35
2022-11-06T00:13:43.515Z,8.33
2022-11-06T00:14:43.516Z,8.33
2022-11-06T00:15:43.501Z,8.32
2022-11-06T00:16:43.501Z,8.28
2022-11-06T00:17:43.516Z,8.24
2022-11-06T00:18:43.516Z,8.22
2022-11-06T00:19:43.501Z,8.21
2022-11-06T00:20:43.501Z,8.2
2022-11-06T00:21:43.516Z,8.18
2022-11-06T00:22:43.563Z,8.2
2022-11-06T00:23:43.502Z,8.21
2022-11-06T00:24:43.517Z,8.24
2022-11-06T00:25:43.517Z,8.27
2022-11-06T00:26:43.516Z,8.33
2022-11-06T00:27:43.502Z,8.38
2022-11-06T00:28:43.516Z,8.39
2022-11-06T00:29:43.581Z,8.42
2022-11-06T00:30:43.516Z,8.46
2022-11-06T00:31:43.503Z,8.47
2022-11-06T00:32:43.517Z,8.47
2022-11-06T00:33:43.518Z,8.47
2022-11-06T00:34:43.518Z,8.49
2022-11-06T00:35:43.503Z,8.5
2022-11-06T00:36:43.518Z,8.5
2022-11-06T00:37:43.519Z,8.52
2022-11-06T00:38:43.504Z,8.53
2022-11-06T00:39:43.504Z,8.54
2022-11-06T00:40:43.518Z,8.54
2022-11-06T00:41:43.520Z,8.56
2022-11-06T00:42:43.504Z,8.57
2022-11-06T00:43:43.504Z,8.53
2022-11-06T00:44:43.519Z,8.47
2022-11-06T00:45:43.520Z,8.46
2022-11-06T00:46:43.505Z,8.46
2022-11-06T00:47:43.520Z,8.45
2022-11-06T00:48:43.520Z,8.46
2022-11-06T00:49:43.520Z,8.46
2022-11-06T00:50:43.506Z,8.43
2022-11-06T00:51:43.520Z,8.42
2022-11-06T00:52:43.519Z,8.39
2022-11-06T00:53:43.520Z,8.39
2022-11-06T00:54:43.506Z,8.39
2022-11-06T00:55:43.521Z,8.39
2022-11-06T00:56:43.522Z,8.39
2022-11-06T00:57:52.778Z,8.39
2022-11-06T00:58:43.506Z,8.38
2022-11-06T00:59:43.521Z,8.33
2022-11-06T01:00:43.522Z,8.26
2022-11-06T01:01:43.507Z,8.2
2022-11-06T01:02:43.507Z,8.14
2022-11-06T01:03:43.522Z,8.09
2022-11-06T01:04:43.523Z,8.06
2022-11-06T01:05:43.507Z,8.02
2022-11-06T01:06:43.507Z,7.97
2022-11-06T01:07:43.522Z,7.92
2022-11-06T01:08:43.545Z,7.91
2022-11-06T01:09:43.508Z,7.91
2022-11-06T01:10:43.523Z,7.91
2022-11-06T01:11:43.523Z,7.89
2022-11-06T01:12:43.522Z,7.88
2022-11-06T01:13:43.508Z,7.86
2022-11-06T01:14:43.523Z,7.85
2022-11-06T01:15:43.522Z,7.84
2022-11-06T01:16:43.523Z,7.83
2022-11-06T01:17:43.509Z,7.82
2022-11-06T01:18:43.524Z,7.78
2022-11-06T01:19:43.525Z,7.76
2022-11-06T01:20:43.524Z,7.77
2022-11-06T01:21:43.510Z,7.76
2022-11-06T01:22:43.547Z,7.72
2022-11-06T01:23:43.525Z,7.69
2022-11-06T01:24:43.510Z,7.68
2022-11-06T01:25:43.510Z,7.66
2022-11-06T01:26:43.525Z,7.64
2022-11-06T01:27:43.525Z,7.64
2022-11-06T01:28:43.510Z,7.65
2022-11-06T01:29:43.564Z,7.67
2022-11-06T01:30:43.525Z,7.7
2022-11-06T01:31:43.525Z,7.74
2022-11-06T01:32:43.511Z,7.79
2022-11-06T01:33:43.526Z,7.82
2022-11-06T01:34:43.526Z,7.84
2022-11-06T01:35:43.525Z,7.88
2022-11-06T01:36:43.511Z,7.9
2022-11-06T01:37:43.526Z,7.91
2022-11-06T01:38:43.526Z,7.94
2022-11-06T01:39:43.525Z,7.98
2022-11-06T01:40:43.512Z,8.03
2022-11-06T01:41:43.527Z,8.06
2022-11-06T01:42:43.528Z,8.1
2022-11-06T01:43:43.527Z,8.16
2022-11-06T01:44:43.513Z,8.2
2022-11-06T01:45:43.527Z,8.22
2022-11-06T01:46:43.528Z,8.27
2022-11-06T01:47:43.512Z,8.31
2022-11-06T01:48:43.513Z,8.32
2022-11-06T01:49:43.527Z,8.29
2022-11-06T01:50:43.528Z,8.28
2022-11-06T01:51:43.513Z,8.26
2022-11-06T01:52:43.528Z,8.22
2022-11-06T01:53:43.528Z,8.18
2022-11-06T01:54:43.527Z,8.13
2022-11-06T01:55:43.513Z,8.07
2022-11-06T01:56:43.528Z,7.99
2022-11-06T01:57:43.528Z,7.93
2022-11-06T01:58:43.528Z,7.87
2022-11-06T01:59:43.514Z,7.81
2022-11-06T02:00:43.528Z,7.75
2022-11-06T02:01:43.530Z,7.71
2022-11-06T02:02:43.528Z,7.69
2022-11-06T02:03:43.515Z,7.67
2022-11-06T02:04:43.529Z,7.63
2022-11-06T02:05:43.529Z,7.61
2022-11-06T02:06:43.515Z,7.62
2022-11-06T02:07:43.516Z,7.63
2022-11-06T02:08:43.530Z,7.64
2022-11-06T02:09:43.530Z,7.67
2022-11-06T02:10:43.515Z,7.71
2022-11-06T02:11:43.516Z,7.74
2022-11-06T02:12:43.530Z,7.74
2022-11-06T02:13:43.530Z,7.76
2022-11-06T02:14:43.516Z,7.77
2022-11-06T02:15:43.531Z,7.78
2022-11-06T02:16:43.531Z,7.8
2022-11-06T02:17:43.530Z,7.81
2022-11-06T02:18:43.516Z,7.84
2022-11-06T02:19:43.531Z,7.87
2022-11-06T02:20:43.581Z,7.89
2022-11-06T02:21:43.531Z,7.93
2022-11-06T02:22:43.517Z,7.93
2022-11-06T02:23:43.532Z,7.89
2022-11-06T02:24:43.532Z,7.85
2022-11-06T02:25:43.532Z,7.79
2022-11-06T02:26:43.518Z,7.76
2022-11-06T02:27:43.572Z,7.72
2022-11-06T02:28:43.532Z,7.71
2022-11-06T02:29:43.518Z,7.7
2022-11-06T02:30:43.518Z,7.69
2022-11-06T02:31:43.533Z,7.67
2022-11-06T02:32:43.533Z,7.67
2022-11-06T02:33:43.518Z,7.68
2022-11-06T02:35:43.533Z,7.57
2022-11-06T02:36:43.533Z,7.51
2022-11-06T02:37:43.519Z,7.43
2022-11-06T02:38:43.533Z,7.35
2022-11-06T02:39:43.534Z,7.29
2022-11-06T02:40:43.533Z,7.25
2022-11-06T02:41:43.519Z,7.23
2022-11-06T02:42:43.533Z,7.23
2022-11-06T02:43:43.533Z,7.24
2022-11-06T02:44:43.534Z,7.26
2022-11-06T02:45:43.520Z,7.28
2022-11-06T02:46:43.534Z,7.28
2022-11-06T02:47:43.534Z,7.28
2022-11-06T02:48:43.535Z,7.27
2022-11-06T02:49:43.521Z,7.25
2022-11-06T02:50:43.535Z,7.22
2022-11-06T02:51:43.535Z,7.2
2022-11-06T02:52:43.520Z,7.19
2022-11-06T02:53:43.520Z,7.16
2022-11-06T02:54:43.535Z,7.12
2022-11-06T02:55:43.535Z,7.11
2022-11-06T02:56:43.521Z,7.1
2022-11-06T02:57:43.600Z,7.09
2022-11-06T02:58:43.536Z,7.11
2022-11-06T02:59:43.535Z,7.13
2022-11-06T03:00:43.521Z,7.18
2022-11-06T03:01:43.536Z,7.2
2022-11-06T03:02:43.536Z,7.22
2022-11-06T03:03:43.536Z,7.23
2022-11-06T03:04:43.522Z,7.25
2022-11-06T03:05:43.535Z,7.25
2022-11-06T03:06:43.537Z,7.27
2022-11-06T03:07:43.536Z,7.29
2022-11-06T03:08:43.523Z,7.3
2022-11-06T03:09:43.537Z,7.3
2022-11-06T03:10:43.538Z,7.29
2022-11-06T03:11:43.537Z,7.26
2022-11-06T03:12:43.523Z,7.21
2022-11-06T03:13:43.537Z,7.18
2022-11-06T03:14:43.537Z,7.16
2022-11-06T03:15:43.523Z,7.14
2022-11-06T03:16:43.524Z,7.13
2022-11-06T03:17:43.538Z,7.11
2022-11-06T03:18:43.545Z,7.12
2022-11-06T03:19:43.523Z,7.1
2022-11-06T03:20:43.538Z,7.03
2022-11-06T03:21:43.537Z,6.96
2022-11-06T03:22:43.537Z,6.88
2022-11-06T03:23:43.524Z,6.81
2022-11-06T03:24:43.538Z,6.76
2022-11-06T03:25:43.564Z,6.75
2022-11-06T03:26:43.538Z,6.76
2022-11-06T03:27:43.524Z,6.78
2022-11-06T03:28:43.539Z,6.78
2022-11-06T03:29:43.539Z,6.78
2022-11-06T03:30:43.539Z,6.78
2022-11-06T03:31:43.525Z,6.76
2022-11-06T03:32:43.563Z,6.72
2022-11-06T03:33:43.540Z,6.7
2022-11-06T03:34:43.525Z,6.68
2022-11-06T03:35:43.525Z,6.64
2022-11-06T03:36:43.540Z,6.58
2022-11-06T03:37:43.540Z,6.54
2022-11-06T03:38:43.525Z,6.51
2022-11-06T03:39:43.579Z,6.46
2022-11-06T03:40:43.540Z,6.46
2022-11-06T03:41:43.540Z,6.49
2022-11-06T03:42:43.526Z,6.53
2022-11-06T03:43:48.886Z,6.57
2022-11-06T03:44:43.540Z,6.6
2022-11-06T03:45:43.540Z,6.61
2022-11-06T03:46:43.526Z,6.61
2022-11-06T03:47:43.540Z,6.6
2022-11-06T03:48:43.606Z,6.62
2022-11-06T03:49:43.541Z,6.66
2022-11-06T03:50:43.526Z,6.68
2022-11-06T03:51:43.541Z,6.67
2022-11-06T03:52:43.541Z,6.65
2022-11-06T03:53:43.541Z,6.63
2022-11-06T03:54:43.527Z,6.63
2022-11-06T03:55:43.541Z,6.61
2022-11-06T03:56:43.542Z,6.6
2022-11-06T03:57:43.527Z,6.6
2022-11-06T03:58:43.527Z,6.59
2022-11-06T03:59:43.542Z,6.58
2022-11-06T04:00:43.543Z,6.6
2022-11-06T04:01:43.527Z,6.6
2022-11-06T04:02:43.606Z,6.59
2022-11-06T04:03:43.542Z,6.58
2022-11-06T04:04:43.542Z,6.57
2022-11-06T04:05:43.528Z,6.55
2022-11-06T04:06:43.542Z,6.5
2022-11-06T04:07:43.542Z,6.47
2022-11-06T04:08:43.542Z,6.45
2022-11-06T04:09:43.528Z,6.41
2022-11-06T04:10:43.542Z,6.37
2022-11-06T04:11:43.543Z,6.36
2022-11-06T04:12:43.543Z,6.36
2022-11-06T04:13:43.529Z,6.38
2022-11-06T04:14:43.543Z,6.39
2022-11-06T04:15:43.543Z,6.42
2022-11-06T04:16:43.544Z,6.46
2022-11-06T04:17:43.529Z,6.49
2022-11-06T04:18:43.568Z,6.52
2022-11-06T04:19:43.545Z,6.56
2022-11-06T04:20:43.529Z,6.59
2022-11-06T04:21:43.529Z,6.58
2022-11-06T04:22:43.544Z,6.58
2022-11-06T04:23:43.545Z,6.59
2022-11-06T04:24:43.530Z,6.6
2022-11-06T04:25:43.552Z,6.58
2022-11-06T04:26:43.544Z,6.57
2022-11-06T04:27:43.545Z,6.56
2022-11-06T04:28:43.530Z,6.55
2022-11-06T04:29:43.545Z,6.54
2022-11-06T04:30:43.545Z,6.53
2022-11-06T04:31:43.545Z,6.56
2022-11-06T04:32:43.544Z,6.59
2022-11-06T04:33:43.545Z,6.61
2022-11-06T04:34:43.545Z,6.64
2022-11-06T04:35:43.545Z,6.67
2022-11-06T04:36:43.532Z,6.67
2022-11-06T04:37:43.546Z,6.65
2022-11-06T04:38:43.547Z,6.61
2022-11-06T04:39:43.531Z,6.56
2022-11-06T04:40:43.531Z,6.53
2022-11-06T04:41:43.545Z,6.48
2022-11-06T04:42:43.546Z,6.45
2022-11-06T04:43:46.657Z,6.42
2022-11-06T04:44:43.531Z,6.38
2022-11-06T04:45:43.546Z,6.33
2022-11-06T04:46:43.546Z,6.28
2022-11-06T04:47:43.532Z,6.23
2022-11-06T04:49:43.547Z,6.15
2022-11-06T04:50:43.546Z,6.16
2022-11-06T04:51:43.532Z,6.17
2022-11-06T04:52:43.546Z,6.17
2022-11-06T04:53:43.547Z,6.2
2022-11-06T04:54:43.546Z,6.24
2022-11-06T04:55:43.546Z,6.27
2022-11-06T04:56:43.546Z,6.29
2022-11-06T04:57:43.547Z,6.33
2022-11-06T04:58:43.547Z,6.36
2022-11-06T04:59:43.534Z,6.39
2022-11-06T05:00:43.547Z,6.42
2022-11-06T05:01:43.549Z,6.46
2022-11-06T05:02:43.533Z,6.48
2022-11-06T05:03:43.534Z,6.48
2022-11-06T05:04:43.548Z,6.48
2022-11-06T05:05:43.548Z,6.46
2022-11-06T05:06:43.533Z,6.45
2022-11-06T05:07:43.534Z,6.42
2022-11-06T05:08:43.547Z,6.4
2022-11-06T05:09:43.547Z,6.39
2022-11-06T05:10:43.534Z,6.37
2022-11-06T05:11:43.549Z,6.34
2022-11-06T05:12:43.549Z,6.31
2022-11-06T05:13:43.548Z,6.28
2022-11-06T05:14:43.534Z,6.27
2022-11-06T05:15:43.548Z,6.25
2022-11-06T05:16:43.550Z,6.23
2022-11-06T05:17:43.548Z,6.2
2022-11-06T05:18:43.535Z,6.17
2022-11-06T05:19:43.549Z,6.11
2022-11-06T05:20:43.549Z,6.06
2022-11-06T05:21:43.550Z,6.05
2022-11-06T05:22:43.535Z,6.05
2022-11-06T05:23:43.550Z,6.04
2022-11-06T05:24:43.550Z,6.06
2022-11-06T05:25:43.535Z,6.06
2022-11-06T05:26:43.535Z,6.05
2022-11-06T05:27:43.550Z,6.01
2022-11-06T05:28:43.550Z,5.98
2022-11-06T05:29:43.536Z,5.93
2022-11-06T05:30:43.549Z,5.88
2022-11-06T05:31:43.550Z,5.83
2022-11-06T05:32:43.550Z,5.8
2022-11-06T05:33:43.536Z,5.76
2022-11-06T05:34:43.550Z,5.7
2022-11-06T05:35:43.550Z,5.67
2022-11-06T05:36:43.551Z,5.64
2022-11-06T05:37:43.536Z,5.62
2022-11-06T05:38:43.551Z,5.59
2022-11-06T05:39:43.552Z,5.61
2022-11-06T05:40:43.551Z,5.65
2022-11-06T05:41:43.537Z,5.67
2022-11-06T05:42:43.550Z,5.66
2022-11-06T05:43:51.786Z,5.68
2022-11-06T05:44:43.537Z,5.71
2022-11-06T05:45:43.538Z,5.72
2022-11-06T05:46:43.551Z,5.7
2022-11-06T05:47:43.553Z,5.69
2022-11-06T05:48:43.537Z,5.66
2022-11-06T05:49:43.538Z,5.63
2022-11-06T05:50:43.552Z,5.59
2022-11-06T05:51:43.551Z,5.59
2022-11-06T05:52:52.795Z,5.59
2022-11-06T05:53:51.786Z,5.59
2022-11-06T05:54:43.552Z,5.58
2022-11-06T05:55:43.552Z,5.57
2022-11-06T05:56:43.538Z,5.57
2022-11-06T05:57:43.552Z,5.56
2022-11-06T05:58:43.553Z,5.55
2022-11-06T05:59:43.552Z,5.55
2022-11-06T06:00:43.538Z,5.58
2022-11-06T06:01:43.552Z,5.6
2022-11-06T06:02:43.595Z,5.64
2022-11-06T06:03:43.553Z,5.69
2022-11-06T06:04:43.538Z,5.73
2022-11-06T06:05:43.552Z,5.75
2022-11-06T06:06:43.553Z,5.77
2022-11-06T06:07:43.552Z,5.79
2022-11-06T06:08:43.539Z,5.79
2022-11-06T06:09:43.600Z,5.78
2022-11-06T06:10:43.554Z,5.78
2022-11-06T06:11:43.539Z,5.79
2022-11-06T06:12:43.539Z,5.8
2022-11-06T06:13:43.554Z,5.81
2022-11-06T06:14:43.554Z,5.8
2022-11-06T06:15:43.539Z,5.81
2022-11-06T06:16:43.554Z,5.81
2022-11-06T06:17:43.554Z,5.84
2022-11-06T06:18:43.553Z,5.88
2022-11-06T06:19:43.539Z,5.92
2022-11-06T06:20:43.554Z,5.95
2022-11-06T06:21:43.554Z,5.99
2022-11-06T06:22:43.553Z,6.03
2022-11-06T06:23:43.540Z,6.06
2022-11-06T06:24:43.555Z,6.06
2022-11-06T06:25:43.555Z,6.08
2022-11-06T06:26:43.554Z,6.12
2022-11-06T06:27:43.540Z,6.13
2022-11-06T06:28:43.554Z,6.1
2022-11-06T06:29:43.555Z,6.07
2022-11-06T06:30:43.540Z,6.05
2022-11-06T06:31:43.540Z,6.02
2022-11-06T06:32:43.555Z,6.01
2022-11-06T06:33:43.555Z,6.02
2022-11-06T06:34:43.541Z,6.05
2022-11-06T06:35:43.541Z,6.07
2022-11-06T06:36:43.556Z,6.09
2022-11-06T06:37:43.555Z,6.12
2022-11-06T06:38:43.541Z,6.15
2022-11-06T06:39:43.555Z,6.18
2022-11-06T06:40:43.556Z,6.22
2022-11-06T06:41:43.556Z,6.27
2022-11-06T06:42:43.541Z,6.31
2022-11-06T06:43:43.556Z,6.32
2022-11-06T06:44:43.582Z,6.34
2022-11-06T06:45:43.556Z,6.37
2022-11-06T06:46:43.542Z,6.4
2022-11-06T06:47:43.555Z,6.42
2022-11-06T06:48:43.558Z,6.44
2022-11-06T06:49:43.557Z,6.41
2022-11-06T06:50:43.542Z,6.37
2022-11-06T06:51:43.597Z,6.35
2022-11-06T06:52:43.557Z,6.35
2022-11-06T06:53:43.543Z,6.39
2022-11-06T06:54:43.542Z,6.43
2022-11-06T06:55:43.557Z,6.46
2022-11-06T06:56:43.557Z,6.5
2022-11-06T06:57:43.543Z,6.52
2022-11-06T06:58:43.597Z,6.51
2022-11-06T06:59:43.558Z,6.47
2022-11-06T07:00:43.558Z,6.45
2022-11-06T07:01:43.543Z,6.42
2022-11-06T07:02:43.557Z,6.37
2022-11-06T07:03:43.558Z,6.34
2022-11-06T07:04:43.558Z,6.33
2022-11-06T07:05:43.543Z,6.31
2022-11-06T07:06:43.558Z,6.32
2022-11-06T07:07:43.558Z,6.36
2022-11-06T07:08:43.558Z,6.42
2022-11-06T07:09:43.544Z,6.48
2022-11-06T07:10:43.558Z,6.53
2022-11-06T07:11:43.559Z,6.58
2022-11-06T07:12:43.559Z,6.63
2022-11-06T07:13:43.544Z,6.67
2022-11-06T07:14:43.559Z,6.7
2022-11-06T07:15:43.560Z,6.74
2022-11-06T07:17:43.544Z,6.77
2022-11-06T07:18:43.559Z,6.76
2022-11-06T07:19:43.560Z,6.76
2022-11-06T07:20:43.545Z,6.77
2022-11-06T07:21:43.545Z,6.79
2022-11-06T07:22:43.559Z,6.83
2022-11-06T07:23:43.560Z,6.87
2022-11-06T07:24:43.545Z,6.89
2022-11-06T07:25:43.560Z,6.92
2022-11-06T07:26:43.560Z,6.96
2022-11-06T07:27:43.560Z,7.03
2022-11-06T07:28:43.545Z,7.07
2022-11-06T07:29:43.559Z,7.11
2022-11-06T07:30:43.559Z,7.15
2022-11-06T07:31:43.559Z,7.21
2022-11-06T07:32:43.546Z,7.25
2022-11-06T07:33:43.561Z,7.28
2022-11-06T07:34:43.561Z,7.3
2022-11-06T07:35:43.561Z,7.32
2022-11-06T07:36:43.546Z,7.32
2022-11-06T07:37:43.561Z,7.32
2022-11-06T07:38:43.562Z,7.36
2022-11-06T07:39:43.546Z,7.43
2022-11-06T07:40:43.547Z,7.49
2022-11-06T07:41:43.561Z,7.54
2022-11-06T07:42:43.561Z,7.57
2022-11-06T07:43:43.547Z,7.59
2022-11-06T07:44:43.547Z,7.6
2022-11-06T07:45:43.562Z,7.62
2022-11-06T07:46:43.569Z,7.66
2022-11-06T07:47:43.547Z,7.69
2022-11-06T07:48:43.562Z,7.73
2022-11-06T07:49:43.562Z,7.77
2022-11-06T07:50:43.562Z,7.81
2022-11-06T07:51:43.548Z,7.85
2022-11-06T07:52:43.562Z,7.86
2022-11-06T07:53:43.588Z,7.86
2022-11-06T07:54:43.563Z,7.9
2022-11-06T07:55:43.548Z,7.95
2022-11-06T07:56:43.563Z,8
2022-11-06T07:57:43.563Z,8.07
2022-11-06T07:58:43.562Z,8.16
2022-11-06T07:59:43.549Z,8.25
2022-11-06T08:00:43.626Z,8.33
2022-11-06T08:01:43.564Z,8.39
2022-11-06T08:02:43.549Z,8.45
2022-11-06T08:03:43.550Z,8.47
2022-11-06T08:04:43.564Z,8.52
2022-11-06T08:05:43.565Z,8.59
2022-11-06T08:06:43.549Z,8.64
2022-11-06T08:07:43.550Z,8.71
2022-11-06T08:08:43.564Z,8.78
2022-11-06T08:09:43.563Z,8.85
2022-11-06T08:10:43.550Z,8.93
2022-11-06T08:11:43.565Z,9
2022-11-06T08:12:43.565Z,9.07
2022-11-06T08:13:43.565Z,9.14
2022-11-06T08:14:43.550Z,9.22
2022-11-06T08:15:43.565Z,9.3
2022-11-06T08:16:43.614Z,9.37
2022-11-06T08:17:43.565Z,9.46
2022-11-06T08:18:43.551Z,9.55
2022-11-06T08:19:43.566Z,9.63
2022-11-06T08:20:43.566Z,9.72
2022-11-06T08:21:43.566Z,9.82
2022-11-06T08:22:43.551Z,9.91
2022-11-06T08:23:43.613Z,9.97
2022-11-06T08:24:43.566Z,10.06
2022-11-06T08:25:43.552Z,10.14
2022-11-06T08:26:43.553Z,10.22
2022-11-06T08:27:43.567Z,10.31
2022-11-06T08:28:43.567Z,10.39
2022-11-06T08:29:43.552Z,10.46
2022-11-06T08:30:43.567Z,10.51
2022-11-06T08:31:43.567Z,10.56
2022-11-06T08:32:43.566Z,10.62
2022-11-06T08:33:43.553Z,10.66
2022-11-06T08:34:43.567Z,10.69
2022-11-06T08:35:43.568Z,10.7
2022-11-06T08:36:43.568Z,10.73
2022-11-06T08:37:43.554Z,10.76
2022-11-06T08:38:43.567Z,10.78
2022-11-06T08:39:43.569Z,10.82
2022-11-06T08:40:43.569Z,10.85
2022-11-06T08:41:43.554Z,10.86
2022-11-06T08:42:43.569Z,10.86
2022-11-06T08:43:43.569Z,10.84
2022-11-06T08:44:43.555Z,10.84
2022-11-06T08:45:43.555Z,10.83
2022-11-06T08:46:43.570Z,10.85
2022-11-06T08:47:43.570Z,10.88
2022-11-06T08:48:43.555Z,10.91
2022-11-06T08:49:43.556Z,10.95
2022-11-06T08:50:43.569Z,10.97
2022-11-06T08:51:43.569Z,11.02
2022-11-06T08:52:43.556Z,11.07
2022-11-06T08:53:43.570Z,11.11
2022-11-06T08:54:43.571Z,11.12
2022-11-06T08:55:43.571Z,11.15
2022-11-06T08:56:43.557Z,11.17
2022-11-06T08:57:43.571Z,11.19
2022-11-06T08:58:43.622Z,11.23
2022-11-06T08:59:43.571Z,11.25
2022-11-06T09:00:43.557Z,11.29
2022-11-06T09:01:43.572Z,11.32
2022-11-06T09:02:43.572Z,11.36
2022-11-06T09:03:43.573Z,11.4
2022-11-06T09:04:43.559Z,11.4
2022-11-06T09:05:43.572Z,11.36
2022-11-06T09:06:43.573Z,11.35
2022-11-06T09:07:43.559Z,11.36
2022-11-06T09:08:43.559Z,11.39
2022-11-06T09:09:43.574Z,11.4
2022-11-06T09:10:43.574Z,11.41
2022-11-06T09:11:43.559Z,11.42
2022-11-06T09:12:43.559Z,11.42
2022-11-06T09:13:43.574Z,11.43
2022-11-06T09:14:43.575Z,11.44
2022-11-06T09:15:43.560Z,11.45
2022-11-06T09:16:43.574Z,11.48
2022-11-06T09:17:43.575Z,11.52
2022-11-06T09:18:43.575Z,11.61
2022-11-06T09:19:43.561Z,11.7
2022-11-06T09:20:43.575Z,11.76
2022-11-06T09:21:43.576Z,11.87
2022-11-06T09:22:43.575Z,12.19
2022-11-06T09:23:43.561Z,12.85
2022-11-06T09:24:43.575Z,13.65
2022-11-06T09:25:43.577Z,14.42
2022-11-06T09:26:43.577Z,14.99
2022-11-06T09:27:43.562Z,15.34
2022-11-06T09:28:43.576Z,15.83
2022-11-06T09:29:43.579Z,16.27
2022-11-06T09:30:43.563Z,16.62
2022-11-06T09:31:43.564Z,16.98
2022-11-06T09:32:43.578Z,17.51
2022-11-06T09:33:43.580Z,18.18
2022-11-06T09:34:43.564Z,18.85
2022-11-06T09:35:43.565Z,19.45
2022-11-06T09:36:43.580Z,19.95
2022-11-06T09:37:43.579Z,20.37
2022-11-06T09:38:43.566Z,20.45
2022-11-06T09:39:43.580Z,20.37
2022-11-06T09:40:43.581Z,20.06
2022-11-06T09:41:43.582Z,19.6
2022-11-06T09:42:43.567Z,19.2
2022-11-06T09:43:43.581Z,18.83
2022-11-06T09:44:43.583Z,18.45
2022-11-06T09:45:43.583Z,18.08
2022-11-06T09:46:43.569Z,17.69
2022-11-06T09:47:43.584Z,17.26
2022-11-06T09:48:43.585Z,16.84
2022-11-06T09:49:43.583Z,16.43
2022-11-06T09:50:43.570Z,16.04
2022-11-06T09:51:43.585Z,15.73
2022-11-06T09:52:43.586Z,15.49
2022-11-06T09:53:43.571Z,15.31
2022-11-06T09:54:43.572Z,15.12
2022-11-06T09:55:43.586Z,14.97
2022-11-06T09:56:43.587Z,14.86
2022-11-06T09:57:43.572Z,14.82
2022-11-06T09:58:43.586Z,14.82
2022-11-06T09:59:43.587Z,14.91
2022-11-06T10:00:43.587Z,15.02
2022-11-06T10:01:43.573Z,15.09
2022-11-06T10:02:43.588Z,15.12
2022-11-06T10:03:43.587Z,15.14
2022-11-06T10:04:43.587Z,15.16
2022-11-06T10:05:43.574Z,15.18
2022-11-06T10:06:43.588Z,15.24
2022-11-06T10:07:43.631Z,15.35
2022-11-06T10:08:43.589Z,15.48
2022-11-06T10:09:43.575Z,15.55
2022-11-06T10:10:43.590Z,15.54
2022-11-06T10:11:43.590Z,15.5
2022-11-06T10:12:43.591Z,15.45
2022-11-06T10:13:43.576Z,15.46
2022-11-06T10:14:43.638Z,15.48
2022-11-06T10:15:43.592Z,15.51
2022-11-06T10:16:43.577Z,15.51
2022-11-06T10:17:43.577Z,15.51
2022-11-06T10:18:43.592Z,15.5
2022-11-06T10:19:43.593Z,15.48
2022-11-06T10:20:43.578Z,15.43
2022-11-06T10:21:43.592Z,15.36
2022-11-06T10:22:43.593Z,15.32
2022-11-06T10:23:43.593Z,15.32
2022-11-06T10:24:43.579Z,15.35
2022-11-06T10:25:43.594Z,15.34
2022-11-06T10:26:43.593Z,15.32
2022-11-06T10:27:43.594Z,15.33
2022-11-06T10:28:43.594Z,15.35
2022-11-06T10:29:43.594Z,15.35
2022-11-06T10:30:43.597Z,15.36
2022-11-06T10:31:43.596Z,15.38
2022-11-06T10:32:43.581Z,15.42
2022-11-06T10:33:43.596Z,15.43
2022-11-06T10:34:43.598Z,15.44
2022-11-06T10:35:43.582Z,15.5
2022-11-06T10:36:43.583Z,15.57
2022-11-06T10:37:43.598Z,15.6
2022-11-06T10:38:43.598Z,15.62
2022-11-06T10:39:43.583Z,15.7
2022-11-06T10:40:43.585Z,15.86
2022-11-06T10:41:43.598Z,16.02
2022-11-06T10:42:43.599Z,16.16
2022-11-06T10:43:43.584Z,16.2
2022-11-06T10:44:43.598Z,16.27
2022-11-06T10:45:43.600Z,16.33
2022-11-06T10:46:43.599Z,16.44
2022-11-06T10:47:43.586Z,16.57
2022-11-06T10:48:43.600Z,16.69
2022-11-06T10:49:43.601Z,16.79
2022-11-06T10:50:43.601Z,16.85
2022-11-06T10:51:43.587Z,16.78
2022-11-06T10:52:43.601Z,16.67
2022-11-06T10:53:43.602Z,16.58
2022-11-06T10:54:43.601Z,16.45
2022-11-06T10:55:43.589Z,16.34
2022-11-06T10:56:43.602Z,16.21
2022-11-06T10:57:43.603Z,16.12
2022-11-06T10:58:43.589Z,16.09
2022-11-06T10:59:43.589Z,16.14
2022-11-06T11:00:43.604Z,16.24
2022-11-06T11:01:43.605Z,16.37
2022-11-06T11:02:43.590Z,16.51
2022-11-06T11:03:43.590Z,16.62
2022-11-06T11:04:43.605Z,16.68
2022-11-06T11:05:43.605Z,16.71
2022-11-06T11:06:43.591Z,16.6
2022-11-06T11:07:43.606Z,16.35
2022-11-06T11:08:43.606Z,16.11
2022-11-06T11:09:43.607Z,15.98
2022-11-06T11:10:43.592Z,16.1
2022-11-06T11:11:43.606Z,16.25
2022-11-06T11:12:43.607Z,16.31
2022-11-06T11:13:43.608Z,16.43
2022-11-06T11:14:43.593Z,16.58
2022-11-06T11:15:43.607Z,16.71
2022-11-06T11:16:43.610Z,16.94
2022-11-06T11:17:43.609Z,17.27
2022-11-06T11:18:43.595Z,17.68
2022-11-06T11:19:43.609Z,17.94
2022-11-06T11:20:43.611Z,17.95
2022-11-06T11:21:43.595Z,17.84
2022-11-06T11:22:43.596Z,17.61
2022-11-06T11:23:43.611Z,17.32
2022-11-06T11:24:43.612Z,17.03
2022-11-06T11:25:43.597Z,16.83
2022-11-06T11:26:43.597Z,16.69
2022-11-06T11:27:43.612Z,16.66
2022-11-06T11:28:43.611Z,16.87
2022-11-06T11:29:43.598Z,17.39
2022-11-06T11:30:43.613Z,18.07
2022-11-06T11:31:43.613Z,18.71
2022-11-06T11:32:43.612Z,19.11
2022-11-06T11:33:43.599Z,19.33
2022-11-06T11:34:43.613Z,19.46
2022-11-06T11:35:43.614Z,19.58
2022-11-06T11:36:43.615Z,19.87
2022-11-06T11:37:43.601Z,20.29
2022-11-06T11:38:43.615Z,20.69
2022-11-06T11:39:43.616Z,20.99
2022-11-06T11:40:43.616Z,21.05
2022-11-06T11:41:43.603Z,21.06
2022-11-06T11:42:43.617Z,21.1
2022-11-06T11:43:43.618Z,21.11
2022-11-06T11:44:43.603Z,21.03
2022-11-06T11:45:43.604Z,20.76
2022-11-06T11:46:43.619Z,20.32
2022-11-06T11:47:43.683Z,19.78
2022-11-06T11:48:43.605Z,19.2
2022-11-06T11:49:43.620Z,18.65
2022-11-06T11:50:43.620Z,18.2
2022-11-06T11:51:43.619Z,17.84
2022-11-06T11:52:43.606Z,17.5
2022-11-06T11:53:43.620Z,17.15
2022-11-06T11:54:43.621Z,16.9
2022-11-06T11:55:43.622Z,16.74
2022-11-06T11:56:43.608Z,16.62
2022-11-06T11:57:43.621Z,16.59
2022-11-06T11:58:43.622Z,16.73
2022-11-06T11:59:43.623Z,17.09
2022-11-06T12:00:43.608Z,17.51
2022-11-06T12:01:43.686Z,17.78
2022-11-06T12:02:43.624Z,18.01
2022-11-06T12:03:43.609Z,18.25
2022-11-06T12:04:48.892Z,18.54
2022-11-06T12:05:43.625Z,18.77
2022-11-06T12:06:43.626Z,19.03
2022-11-06T12:07:43.611Z,19.27
2022-11-06T12:08:43.612Z,19.54
2022-11-06T12:09:43.625Z,19.74
2022-11-06T12:10:43.634Z,20.01
2022-11-06T12:11:43.612Z,20.16
2022-11-06T12:12:43.626Z,20.18
2022-11-06T12:13:43.628Z,20.11
2022-11-06T12:14:43.627Z,19.94
2022-11-06T12:15:43.614Z,19.62
2022-11-06T12:16:43.628Z,19.31
2022-11-06T12:17:43.654Z,19.1
2022-11-06T12:18:43.628Z,19.06
2022-11-06T12:19:43.616Z,19.19
2022-11-06T12:20:43.629Z,19.35
2022-11-06T12:21:43.630Z,19.45
2022-11-06T12:22:43.631Z,19.59
2022-11-06T12:23:43.617Z,19.76
2022-11-06T12:24:43.655Z,19.84
2022-11-06T12:25:43.633Z,19.74
2022-11-06T12:26:43.618Z,19.61
2022-11-06T12:27:43.619Z,19.46
2022-11-06T12:28:43.633Z,19.43
2022-11-06T12:29:43.633Z,19.51
2022-11-06T12:30:43.619Z,19.61
2022-11-06T12:31:43.620Z,19.77
2022-11-06T12:32:43.634Z,19.79
2022-11-06T12:33:43.635Z,19.69
2022-11-06T12:34:43.620Z,19.54
2022-11-06T12:35:43.635Z,19.4
2022-11-06T12:36:43.636Z,19.34
2022-11-06T12:37:43.635Z,19.49
2022-11-06T12:38:43.622Z,19.78
2022-11-06T12:39:43.636Z,19.95
2022-11-06T12:40:43.637Z,20.06
2022-11-06T12:41:43.638Z,20.07
2022-11-06T12:42:43.623Z,20.07
2022-11-06T12:43:43.638Z,20.03
2022-11-06T12:44:43.640Z,19.94
2022-11-06T12:46:43.625Z,19.45
2022-11-06T12:47:43.640Z,19.11
2022-11-06T12:48:43.641Z,18.77
2022-11-06T12:49:43.626Z,18.5
2022-11-06T12:50:43.627Z,18.21
2022-11-06T12:51:43.641Z,17.94
2022-11-06T12:52:43.643Z,17.68
2022-11-06T12:53:43.627Z,17.41
2022-11-06T12:54:43.641Z,17.11
2022-11-06T12:55:43.643Z,16.83
2022-11-06T12:56:43.642Z,16.59
2022-11-06T12:57:43.628Z,16.36
2022-11-06T12:58:43.642Z,16.17
2022-11-06T12:59:43.644Z,16.03
2022-11-06T13:00:43.644Z,15.87
2022-11-06T13:01:43.631Z,15.72
2022-11-06T13:02:43.644Z,15.52
2022-11-06T13:03:43.645Z,15.34
2022-11-06T13:04:46.675Z,15.23
2022-11-06T13:05:43.631Z,15.15
2022-11-06T13:06:43.645Z,15.11
2022-11-06T13:07:43.647Z,15.09
2022-11-06T13:08:43.646Z,15.02
2022-11-06T13:09:43.633Z,14.92
2022-11-06T13:10:43.647Z,14.83
2022-11-06T13:11:43.648Z,14.78
2022-11-06T13:12:43.633Z,14.75
2022-11-06T13:13:43.633Z,14.7
2022-11-06T13:14:43.648Z,14.65
2022-11-06T13:15:43.648Z,14.6